Time;durP1;ratioP1;P1;durP2;ratioP2;P2;SDS_P1;SDS_P2;PMS_P1;PMS_P2;Temp;Humidity;BMP_temperature;BMP_pressure;BME280_temperature;BME280_humidity;BME280_pressure;Samples;Min_cycle;Max_cycle;Signal;HPM_P1;HPM_P2
2022/12/24 00:00:13;;;;;;;112.97;51.23;;;2.50;99.90;;;;;;4113908;28;20261;-68
2022/12/24 00:02:14;;;;;;;109.17;49.23;;;2.50;99.90;;;;;;4112733;28;20256;-68
2022/12/24 00:04:15;;;;;;;113.40;50.97;;;2.50;99.90;;;;;;4113713;28;20745;-67
2022/12/24 00:06:19;;;;;;;115.30;49.33;;;2.50;99.90;;;;;;4113527;28;20264;-67
2022/12/24 00:08:21;;;;;;;101.93;49.83;;;2.40;99.90;;;;;;4115251;28;20315;-68
2022/12/24 00:10:22;;;;;;;119.27;52.73;;;2.40;99.90;;;;;;4113149;28;20272;-67
2022/12/24 00:12:24;;;;;;;107.60;50.00;;;2.40;99.90;;;;;;4113703;28;20355;-67
2022/12/24 00:14:25;;;;;;;101.50;46.60;;;2.40;99.90;;;;;;4113538;28;20276;-68
2022/12/24 00:16:27;;;;;;;113.40;49.27;;;2.30;99.90;;;;;;4113842;28;20619;-67
2022/12/24 00:18:28;;;;;;;119.20;49.97;;;2.30;99.90;;;;;;4113235;28;20276;-67
2022/12/24 00:20:29;;;;;;;121.13;50.47;;;2.30;99.90;;;;;;4114076;28;20277;-66
2022/12/24 00:22:30;;;;;;;115.60;50.50;;;2.30;99.90;;;;;;4113537;28;20300;-67
2022/12/24 00:24:31;;;;;;;120.07;52.13;;;2.30;99.90;;;;;;4113426;28;20268;-65
2022/12/24 00:26:33;;;;;;;114.33;53.80;;;2.30;99.90;;;;;;4113688;28;20741;-67
2022/12/24 00:28:34;;;;;;;125.63;53.97;;;2.30;99.90;;;;;;4112421;28;20330;-66
2022/12/24 00:30:39;;;;;;;111.83;50.00;;;2.30;99.90;;;;;;4114244;28;20264;-65
2022/12/24 00:32:41;;;;;;;110.57;50.33;;;2.30;99.90;;;;;;4112706;28;20295;-67
2022/12/24 00:34:42;;;;;;;116.93;50.90;;;2.30;99.90;;;;;;4114215;28;20669;-65
2022/12/24 00:36:43;;;;;;;114.77;54.63;;;2.30;99.90;;;;;;4112629;28;20300;-67
2022/12/24 00:38:44;;;;;;;125.00;54.10;;;2.40;99.90;;;;;;4114569;28;20281;-67
2022/12/24 00:40:45;;;;;;;122.47;54.10;;;2.40;99.90;;;;;;4113478;28;20289;-64
2022/12/24 00:42:46;;;;;;;115.80;52.80;;;2.40;99.90;;;;;;4114216;28;20340;-66
2022/12/24 00:44:47;;;;;;;122.60;56.87;;;2.40;99.90;;;;;;4113025;28;20340;-68
2022/12/24 00:46:49;;;;;;;121.77;53.73;;;2.40;99.90;;;;;;4113773;28;20339;-67
2022/12/24 00:48:51;;;;;;;117.27;52.07;;;2.50;99.90;;;;;;4111626;28;20268;-68
2022/12/24 00:50:52;;;;;;;129.30;59.00;;;2.50;99.90;;;;;;4113779;28;20850;-67
2022/12/24 00:52:53;;;;;;;114.77;52.90;;;2.50;99.90;;;;;;4113162;28;20299;-68
2022/12/24 00:54:54;;;;;;;115.00;51.80;;;2.50;99.90;;;;;;4113060;28;20269;-67
2022/12/24 00:56:55;;;;;;;124.37;54.80;;;2.50;99.90;;;;;;4112702;28;20351;-66
2022/12/24 00:58:57;;;;;;;118.50;51.47;;;2.50;99.90;;;;;;4112988;28;20297;-67
2022/12/24 01:00:58;;;;;;;115.80;51.70;;;2.50;99.90;;;;;;4113766;28;20272;-66
2022/12/24 01:02:59;;;;;;;119.97;51.30;;;2.50;99.90;;;;;;4112016;28;20265;-64
2022/12/24 01:05:09;;;;;;;125.83;52.50;;;2.50;99.90;;;;;;4113769;28;20768;-67
2022/12/24 01:07:11;;;;;;;122.47;54.50;;;2.50;99.90;;;;;;4112299;28;20810;-66
2022/12/24 01:09:12;;;;;;;115.30;49.73;;;2.50;99.90;;;;;;4113907;28;20369;-66
2022/12/24 01:11:13;;;;;;;110.70;49.87;;;2.50;99.90;;;;;;4112911;28;20323;-67
2022/12/24 01:13:14;;;;;;;130.60;50.93;;;2.50;99.90;;;;;;4113659;28;20335;-64
2022/12/24 01:15:15;;;;;;;118.23;54.27;;;2.50;99.90;;;;;;4112230;28;20277;-67
2022/12/24 01:17:16;;;;;;;113.00;52.93;;;2.50;99.90;;;;;;4114126;28;20272;-64
2022/12/24 01:19:17;;;;;;;112.03;52.07;;;2.50;99.90;;;;;;4112317;28;20312;-66
2022/12/24 01:21:19;;;;;;;117.83;53.57;;;2.50;99.90;;;;;;4113064;28;20831;-67
2022/12/24 01:23:20;;;;;;;111.50;52.07;;;2.50;99.90;;;;;;4112678;28;20261;-66
2022/12/24 01:25:21;;;;;;;116.53;51.53;;;2.50;99.90;;;;;;4112378;28;20323;-68
2022/12/24 01:27:22;;;;;;;121.10;52.70;;;2.50;99.90;;;;;;4112122;28;20690;-63
2022/12/24 01:29:23;;;;;;;126.43;53.13;;;2.50;99.90;;;;;;4111915;28;20277;-66
2022/12/24 01:31:24;;;;;;;122.47;53.50;;;2.50;99.90;;;;;;4112800;28;20280;-67
2022/12/24 01:33:29;;;;;;;116.90;51.47;;;2.50;99.90;;;;;;4111186;28;20339;-65
2022/12/24 01:35:30;;;;;;;116.17;51.37;;;2.50;99.90;;;;;;4113330;28;20657;-64
2022/12/24 01:37:31;;;;;;;108.37;51.60;;;2.50;99.90;;;;;;4111461;28;20363;-66
2022/12/24 01:39:32;;;;;;;117.40;52.87;;;2.50;99.90;;;;;;4112617;28;20281;-65
2022/12/24 01:43:53;;;;;;;113.80;54.00;;;2.50;99.90;;;;;;4113515;28;20826;-63
2022/12/24 01:46:03;;;;;;;119.87;52.60;;;2.50;99.90;;;;;;4111751;28;20281;-67
2022/12/24 01:48:21;;;;;;;111.95;50.40;;;2.50;99.90;;;;;;4112904;28;20365;-65
2022/12/24 01:50:22;;;;;;;117.53;50.40;;;2.50;99.90;;;;;;4112289;28;20022;-61
2022/12/24 01:52:34;;;;;;;108.13;48.87;;;2.50;99.90;;;;;;4113222;28;20272;-65
2022/12/24 01:54:52;;;;;;;115.00;51.13;;;2.60;99.90;;;;;;4112229;28;20595;-60
2022/12/24 01:57:06;;;;;;;130.10;55.37;;;2.60;99.90;;;;;;4113211;28;20766;-65
2022/12/24 01:59:11;;;;;;;113.00;52.27;;;2.60;99.90;;;;;;4112159;28;20677;-65
2022/12/24 02:01:12;;;;;;;116.60;53.33;;;2.60;99.90;;;;;;4113147;28;20269;-64
2022/12/24 02:03:14;;;;;;;123.67;53.73;;;2.60;99.90;;;;;;4112236;28;20281;-63
2022/12/24 02:05:54;;;;;;;112.93;52.00;;;2.60;99.90;;;;;;4113146;28;20333;-65
2022/12/24 02:07:58;;;;;;;114.30;52.28;;;2.60;99.90;;;;;;4112421;28;20304;-66
2022/12/24 02:10:00;;;;;;;110.57;48.27;;;2.70;99.90;;;;;;4116563;28;20035;-65
2022/12/24 02:12:04;;;;;;;112.20;51.23;;;2.70;99.90;;;;;;4114386;28;20635;-61
2022/12/24 02:14:06;;;;;;;103.30;47.87;;;2.70;99.90;;;;;;4116130;28;20276;-64
2022/12/24 02:16:33;;;;;;;115.60;51.87;;;2.70;99.90;;;;;;4115237;28;20308;-58
2022/12/24 02:18:41;;;;;;;112.70;51.63;;;2.70;99.90;;;;;;4070989;28;20277;-65
2022/12/24 02:21:03;;;;;;;109.07;51.50;;;2.70;99.90;;;;;;4114888;28;20595;-61
2022/12/24 02:23:38;;;;;;;111.23;50.53;;;2.80;99.90;;;;;;4116257;28;20311;-62
2022/12/24 02:26:01;;;;;;;117.37;50.30;;;2.80;99.90;;;;;;4099005;29;20289;-66
2022/12/24 02:28:21;;;;;;;118.50;49.83;;;2.80;99.90;;;;;;4099416;28;20328;-67
2022/12/24 02:30:54;;;;;;;109.60;51.17;;;2.80;99.90;;;;;;4099848;28;20265;-67
2022/12/24 02:33:22;;;;;;;108.27;49.37;;;2.80;99.90;;;;;;4098928;28;20452;-64
2022/12/24 02:35:48;;;;;;;112.13;51.73;;;2.80;99.90;;;;;;4100220;29;20254;-66
2022/12/24 02:38:12;;;;;;;112.70;52.27;;;2.90;99.90;;;;;;4098141;29;20301;-66
2022/12/24 02:40:47;;;;;;;119.10;51.47;;;2.90;99.90;;;;;;4099956;29;20673;-62
2022/12/24 02:42:55;;;;;;;109.27;50.20;;;2.90;99.90;;;;;;4098891;29;20270;-61
2022/12/24 02:45:25;;;;;;;117.63;51.57;;;2.90;99.90;;;;;;4099725;29;20261;-66
2022/12/24 02:47:29;;;;;;;117.72;51.63;;;3.00;99.90;;;;;;4098833;28;20257;-67
2022/12/24 02:49:30;;;;;;;124.40;54.63;;;3.00;99.90;;;;;;4099294;28;20086;-62
2022/12/24 02:51:31;;;;;;;137.50;58.73;;;2.90;99.90;;;;;;4099162;29;20262;-68
2022/12/24 02:53:33;;;;;;;127.77;55.10;;;2.90;99.90;;;;;;4099641;29;20332;-67
2022/12/24 02:55:55;;;;;;;123.03;52.43;;;2.90;99.90;;;;;;4098633;28;20304;-58
2022/12/24 02:58:05;;;;;;;115.60;48.27;;;2.90;99.90;;;;;;4099356;29;20289;-67
2022/12/24 03:00:18;;;;;;;127.97;52.15;;;2.90;99.90;;;;;;4098863;29;20332;-67
2022/12/24 03:02:25;;;;;;;117.87;51.23;;;2.90;99.90;;;;;;4098954;29;20440;-65
2022/12/24 03:04:41;;;;;;;118.37;53.03;;;2.90;99.90;;;;;;4098631;29;20340;-67
2022/12/24 03:06:45;;;;;;;116.23;51.77;;;2.90;99.90;;;;;;4099034;29;20325;-62
2022/12/24 03:09:13;;;;;;;108.60;50.00;;;2.90;99.90;;;;;;4098680;29;20328;-66
2022/12/24 03:11:17;;;;;;;108.97;51.07;;;2.80;99.90;;;;;;4095614;29;20607;-64
2022/12/24 03:13:19;;;;;;;119.33;52.83;;;2.80;99.90;;;;;;4098757;28;20742;-66
2022/12/24 03:15:23;;;;;;;116.67;51.73;;;2.80;99.90;;;;;;4098889;28;20258;-66
2022/12/24 03:17:25;;;;;;;111.67;52.53;;;2.80;99.90;;;;;;4114530;28;20296;-62
2022/12/24 03:19:27;;;;;;;110.93;51.53;;;2.70;99.90;;;;;;4113621;28;20315;-59
2022/12/24 03:21:31;;;;;;;112.83;51.93;;;2.60;99.90;;;;;;4114394;28;20257;-64
2022/12/24 03:23:33;;;;;;;111.40;52.13;;;2.60;99.90;;;;;;4114327;28;20324;-64
2022/12/24 03:25:39;;;;;;;112.83;51.17;;;2.50;99.90;;;;;;4113851;28;20622;-59
2022/12/24 03:27:41;;;;;;;110.33;50.47;;;2.50;99.90;;;;;;4115538;28;20319;-67
2022/12/24 03:29:44;;;;;;;115.57;50.40;;;2.40;99.90;;;;;;4114308;28;20745;-67
2022/12/24 03:31:51;;;;;;;122.47;53.83;;;2.40;99.90;;;;;;4115302;28;20272;-68
2022/12/24 03:33:52;;;;;;;131.80;51.93;;;2.30;99.90;;;;;;4113883;28;20265;-65
2022/12/24 03:35:53;;;;;;;120.10;52.60;;;2.30;99.90;;;;;;4115197;28;20753;-65
2022/12/24 03:37:55;;;;;;;121.00;54.37;;;2.40;99.90;;;;;;4113525;28;20359;-66
2022/12/24 03:39:56;;;;;;;120.50;52.20;;;2.30;99.90;;;;;;4115312;28;20272;-66
2022/12/24 03:41:57;;;;;;;128.27;54.43;;;2.30;99.90;;;;;;4114084;28;20323;-66
2022/12/24 03:43:58;;;;;;;122.73;53.70;;;2.30;99.90;;;;;;4114977;28;20268;-67
2022/12/24 03:46:05;;;;;;;123.33;55.73;;;2.20;99.90;;;;;;4113636;28;20253;-68
2022/12/24 03:48:06;;;;;;;116.27;52.97;;;2.20;99.90;;;;;;4114025;28;20276;-66
2022/12/24 03:50:07;;;;;;;124.40;57.70;;;2.20;99.90;;;;;;4113249;28;20831;-68
2022/12/24 03:52:08;;;;;;;123.13;56.83;;;2.20;99.90;;;;;;4113175;28;20269;-68
2022/12/24 03:54:09;;;;;;;120.27;54.00;;;2.10;99.90;;;;;;4114653;28;20272;-67
2022/12/24 03:56:10;;;;;;;123.87;55.70;;;2.10;99.90;;;;;;4113692;28;20295;-68
2022/12/24 03:58:12;;;;;;;117.80;55.20;;;2.10;99.90;;;;;;4114375;28;20363;-68
2022/12/24 04:00:13;;;;;;;116.80;54.40;;;2.00;99.90;;;;;;4113111;28;20269;-66
2022/12/24 04:02:14;;;;;;;119.03;54.23;;;2.00;99.90;;;;;;4114559;28;20348;-69
2022/12/24 04:04:16;;;;;;;109.67;54.37;;;2.00;99.90;;;;;;4113280;28;20753;-66
2022/12/24 04:06:17;;;;;;;120.23;53.13;;;2.00;99.90;;;;;;4114608;28;20347;-59
2022/12/24 04:08:18;;;;;;;119.90;54.57;;;2.00;99.90;;;;;;4113487;28;20308;-68
2022/12/24 04:10:19;;;;;;;122.10;55.37;;;2.00;99.90;;;;;;4114188;28;20273;-65
2022/12/24 04:12:20;;;;;;;129.00;57.43;;;1.90;99.90;;;;;;4112811;28;20363;-65
2022/12/24 04:14:21;;;;;;;132.57;59.57;;;1.90;99.90;;;;;;4114470;28;20269;-66
2022/12/24 04:16:22;;;;;;;132.40;56.73;;;2.00;99.90;;;;;;4113034;28;20265;-65
2022/12/24 04:18:24;;;;;;;133.10;57.47;;;1.90;99.90;;;;;;4114238;28;20292;-68
2022/12/24 04:20:25;;;;;;;129.13;57.67;;;1.90;99.90;;;;;;4113340;28;20272;-64
2022/12/24 04:22:26;;;;;;;130.87;57.70;;;1.90;99.90;;;;;;4113748;28;20273;-66
2022/12/24 04:24:27;;;;;;;142.00;60.13;;;1.90;99.90;;;;;;4114147;28;20315;-67
2022/12/24 04:26:28;;;;;;;145.30;60.77;;;1.90;99.90;;;;;;4113390;28;20269;-66
2022/12/24 04:28:29;;;;;;;135.87;59.63;;;1.90;99.90;;;;;;4114517;28;20311;-66
2022/12/24 04:30:31;;;;;;;130.77;58.80;;;1.90;99.90;;;;;;4112951;28;20284;-66
2022/12/24 04:32:32;;;;;;;140.23;61.50;;;1.90;99.90;;;;;;4113583;28;20265;-65
2022/12/24 04:34:33;;;;;;;144.73;60.70;;;1.90;99.90;;;;;;4113015;28;20673;-66
2022/12/24 04:36:34;;;;;;;129.20;57.20;;;1.90;99.90;;;;;;4114378;28;20277;-65
2022/12/24 04:38:35;;;;;;;133.23;57.53;;;2.00;99.90;;;;;;4112255;28;20370;-66
2022/12/24 04:40:36;;;;;;;129.40;57.07;;;2.00;99.90;;;;;;4114363;28;20286;-66
2022/12/24 04:42:37;;;;;;;131.13;55.93;;;1.90;99.90;;;;;;4113139;28;20316;-66
2022/12/24 04:44:38;;;;;;;133.63;56.13;;;1.90;99.90;;;;;;4114024;28;20654;-64
2022/12/24 04:46:41;;;;;;;128.53;56.40;;;2.00;99.90;;;;;;4112805;28;20272;-67
2022/12/24 04:48:42;;;;;;;121.83;55.30;;;2.00;99.90;;;;;;4113132;28;20288;-66
2022/12/24 04:50:43;;;;;;;127.60;55.67;;;2.00;99.90;;;;;;4112775;28;20313;-64
2022/12/24 04:52:44;;;;;;;127.17;55.80;;;2.00;99.90;;;;;;4112999;28;20321;-66
2022/12/24 04:54:45;;;;;;;115.93;52.37;;;2.00;99.90;;;;;;4113101;28;20272;-59
2022/12/24 04:56:46;;;;;;;120.47;54.73;;;2.00;99.90;;;;;;4112151;28;20824;-65
2022/12/24 04:58:48;;;;;;;124.93;54.93;;;2.10;99.90;;;;;;4112957;28;20296;-65
2022/12/24 05:00:49;;;;;;;121.87;53.67;;;2.00;99.90;;;;;;4112687;28;20802;-64
2022/12/24 05:02:51;;;;;;;116.43;51.60;;;2.10;99.90;;;;;;4113016;28;20276;-66
2022/12/24 05:04:52;;;;;;;114.57;51.00;;;2.10;99.90;;;;;;4112858;28;20281;-66
2022/12/24 05:06:53;;;;;;;117.50;53.30;;;2.10;99.90;;;;;;4113816;28;20273;-65
2022/12/24 05:08:55;;;;;;;119.70;53.73;;;2.10;99.90;;;;;;4112777;28;20417;-64
2022/12/24 05:10:57;;;;;;;117.53;51.77;;;2.00;99.90;;;;;;4113695;28;20261;-67
2022/12/24 05:12:58;;;;;;;117.10;47.97;;;2.00;99.90;;;;;;4111938;28;20276;-66
2022/12/24 05:15:00;;;;;;;113.87;48.77;;;2.00;99.90;;;;;;4113278;28;20272;-65
2022/12/24 05:17:01;;;;;;;108.13;47.23;;;2.00;99.90;;;;;;4112625;28;20343;-65
2022/12/24 05:19:02;;;;;;;103.80;47.40;;;2.10;99.90;;;;;;4113090;28;20304;-58
2022/12/24 05:21:12;;;;;;;101.17;46.43;;;2.00;99.90;;;;;;4112819;28;20661;-59
2022/12/24 05:27:58;;;;;;;103.63;46.50;;;2.00;99.90;;;;;;4113817;28;20312;-59
2022/12/24 05:29:59;;;;;;;104.33;44.43;;;2.00;99.90;;;;;;4112162;28;20425;-60
2022/12/24 05:32:00;;;;;;;93.60;45.47;;;2.00;99.90;;;;;;4112594;28;20319;-63
2022/12/24 05:34:02;;;;;;;102.50;43.43;;;2.00;99.90;;;;;;4112485;28;20733;-64
2022/12/24 05:36:03;;;;;;;90.60;42.77;;;2.00;99.90;;;;;;4112596;28;20265;-63
2022/12/24 05:38:04;;;;;;;92.70;41.10;;;2.00;99.90;;;;;;4112698;28;20347;-60
2022/12/24 05:40:06;;;;;;;95.67;43.00;;;1.90;99.90;;;;;;4112091;28;20383;-65
2022/12/24 05:42:07;;;;;;;90.87;42.60;;;1.90;99.90;;;;;;4112667;28;20354;-63
2022/12/24 05:44:08;;;;;;;90.33;41.13;;;1.90;99.90;;;;;;4111156;28;20761;-64
2022/12/24 05:46:12;;;;;;;87.73;39.90;;;1.90;99.90;;;;;;4112677;28;20281;-58
2022/12/24 05:48:13;;;;;;;95.17;43.37;;;1.90;99.90;;;;;;4111432;28;20269;-63
2022/12/24 05:50:15;;;;;;;98.83;44.03;;;1.90;99.90;;;;;;4113172;28;20280;-63
2022/12/24 05:52:16;;;;;;;90.07;41.90;;;1.90;99.90;;;;;;4110769;28;20312;-63
2022/12/24 05:54:17;;;;;;;86.10;41.47;;;2.00;99.90;;;;;;4112081;28;21028;-56
2022/12/24 05:56:21;;;;;;;96.30;43.97;;;1.90;99.90;;;;;;4094311;29;20752;-59
2022/12/24 05:58:22;;;;;;;90.93;43.87;;;2.00;99.90;;;;;;4111828;28;20347;-58
2022/12/24 06:00:23;;;;;;;101.90;43.00;;;2.00;99.90;;;;;;4109563;28;20339;-57
2022/12/24 06:02:25;;;;;;;99.97;43.90;;;2.00;99.90;;;;;;4112599;28;20269;-60
2022/12/24 06:04:27;;;;;;;94.20;42.90;;;2.10;99.90;;;;;;4111637;28;20272;-67
2022/12/24 06:06:28;;;;;;;94.70;42.80;;;2.10;99.90;;;;;;4111781;28;20602;-66
2022/12/24 06:08:30;;;;;;;92.30;42.03;;;2.10;99.90;;;;;;4112302;28;20689;-59
2022/12/24 06:10:31;;;;;;;92.30;42.70;;;2.10;99.90;;;;;;4111750;28;20757;-65
2022/12/24 06:12:32;;;;;;;101.17;45.63;;;2.10;99.90;;;;;;4112413;28;20265;-64
2022/12/24 06:14:33;;;;;;;91.83;41.27;;;2.10;99.90;;;;;;4110679;28;20277;-60
2022/12/24 06:16:35;;;;;;;96.17;43.20;;;2.20;99.90;;;;;;4112490;28;20741;-66
2022/12/24 06:18:36;;;;;;;90.43;42.00;;;2.20;99.90;;;;;;4111353;28;20300;-64
2022/12/24 06:20:38;;;;;;;95.17;43.87;;;2.20;99.90;;;;;;4112237;28;20277;-60
2022/12/24 06:22:39;;;;;;;86.00;42.03;;;2.20;99.90;;;;;;4111600;28;20753;-61
2022/12/24 06:24:40;;;;;;;81.43;40.80;;;2.30;99.90;;;;;;4112599;28;20372;-65
2022/12/24 06:26:41;;;;;;;88.00;42.13;;;2.30;99.90;;;;;;4110984;28;20277;-58
2022/12/24 06:28:42;;;;;;;85.37;42.63;;;2.40;99.90;;;;;;4112725;28;20409;-58
2022/12/24 06:30:48;;;;;;;84.63;39.77;;;2.40;99.90;;;;;;4111032;28;20347;-60
2022/12/24 06:32:49;;;;;;;86.70;40.97;;;2.40;99.90;;;;;;4112605;28;20268;-58
2022/12/24 06:34:51;;;;;;;82.53;39.23;;;2.40;99.90;;;;;;4111466;28;20272;-59
2022/12/24 06:36:52;;;;;;;81.43;39.67;;;2.50;99.90;;;;;;4112220;28;20273;-63
2022/12/24 06:38:54;;;;;;;80.00;38.40;;;2.50;99.90;;;;;;4110835;28;20363;-63
2022/12/24 06:40:55;;;;;;;84.57;39.73;;;2.50;99.90;;;;;;4111531;28;20261;-67
2022/12/24 06:42:56;;;;;;;82.70;37.37;;;2.50;99.90;;;;;;4111855;28;20385;-59
2022/12/24 06:44:57;;;;;;;75.37;36.90;;;2.60;99.90;;;;;;4111335;28;20607;-62
2022/12/24 06:46:58;;;;;;;75.30;37.53;;;2.60;99.90;;;;;;4111579;28;20273;-59
2022/12/24 06:48:59;;;;;;;72.10;37.60;;;2.60;99.90;;;;;;4110544;28;20273;-61
2022/12/24 06:51:02;;;;;;;73.20;35.67;;;2.70;99.90;;;;;;4112020;28;20332;-64
2022/12/24 06:53:03;;;;;;;78.97;37.63;;;2.70;99.90;;;;;;4109964;28;20273;-64
2022/12/24 06:55:05;;;;;;;69.43;35.90;;;2.80;99.90;;;;;;4113266;28;20414;-63
2022/12/24 06:57:06;;;;;;;66.97;34.53;;;2.80;99.90;;;;;;4113054;28;20792;-64
2022/12/24 06:59:07;;;;;;;62.40;32.83;;;2.90;99.90;;;;;;4113920;28;20296;-63
2022/12/24 07:01:12;;;;;;;70.83;35.63;;;2.90;99.90;;;;;;4114340;28;20276;-66
2022/12/24 07:03:13;;;;;;;59.23;31.87;;;3.00;99.90;;;;;;4113889;28;20269;-66
2022/12/24 07:05:15;;;;;;;65.33;32.83;;;3.00;99.90;;;;;;4113471;28;20256;-66
2022/12/24 07:07:16;;;;;;;67.07;34.23;;;3.00;99.90;;;;;;4114567;28;20272;-65
2022/12/24 07:09:17;;;;;;;64.73;32.47;;;3.10;99.90;;;;;;4113986;28;20335;-66
2022/12/24 07:11:19;;;;;;;59.10;32.17;;;3.10;99.90;;;;;;4114313;28;20269;-68
2022/12/24 07:13:20;;;;;;;62.00;32.77;;;3.10;99.90;;;;;;4113631;28;20269;-67
2022/12/24 07:15:21;;;;;;;58.63;31.70;;;3.10;99.90;;;;;;4114334;28;20302;-61
2022/12/24 07:17:22;;;;;;;66.97;34.73;;;3.20;99.90;;;;;;4114865;28;20669;-60
2022/12/24 07:19:23;;;;;;;60.43;32.97;;;3.20;99.90;;;;;;4112781;28;20356;-60
2022/12/24 07:21:24;;;;;;;58.23;31.40;;;3.20;99.90;;;;;;4114078;28;20949;-61
2022/12/24 07:23:26;;;;;;;60.20;32.33;;;3.20;99.90;;;;;;4112695;28;20779;-63
2022/12/24 07:25:27;;;;;;;60.57;32.13;;;3.20;99.90;;;;;;4114684;28;20268;-61
2022/12/24 07:27:29;;;;;;;62.83;32.47;;;3.20;99.90;;;;;;4113804;28;20276;-67
2022/12/24 07:29:30;;;;;;;62.30;32.30;;;3.20;99.90;;;;;;4114289;28;20324;-66
2022/12/24 07:31:31;;;;;;;64.80;34.73;;;3.30;99.90;;;;;;4113247;28;20319;-59
2022/12/24 07:33:32;;;;;;;59.70;32.17;;;3.30;99.90;;;;;;4112884;28;20402;-68
2022/12/24 07:35:34;;;;;;;57.30;30.33;;;3.30;99.90;;;;;;4112577;28;20273;-65
2022/12/24 07:37:36;;;;;;;61.10;31.90;;;3.30;99.90;;;;;;4109101;28;20281;-57
2022/12/24 07:39:37;;;;;;;65.23;34.90;;;3.30;99.90;;;;;;4102931;28;20387;-62
2022/12/24 07:41:38;;;;;;;61.70;34.87;;;3.40;99.90;;;;;;4105406;28;20335;-65
2022/12/24 07:43:39;;;;;;;61.47;32.93;;;3.40;99.90;;;;;;4110044;28;20434;-59
2022/12/24 07:45:40;;;;;;;64.63;34.87;;;3.50;99.90;;;;;;4109498;28;20272;-66
2022/12/24 07:47:42;;;;;;;69.07;36.57;;;3.50;99.90;;;;;;4105741;28;20839;-62
2022/12/24 07:49:43;;;;;;;74.33;40.63;;;3.50;99.90;;;;;;4104085;28;20280;-60
2022/12/24 07:51:44;;;;;;;83.37;43.77;;;3.50;99.90;;;;;;4107025;28;20289;-59
2022/12/24 07:53:46;;;;;;;75.70;42.03;;;3.50;99.90;;;;;;4105890;28;20269;-57
2022/12/24 07:55:48;;;;;;;89.20;44.50;;;3.50;99.90;;;;;;4111678;28;20276;-60
2022/12/24 07:57:49;;;;;;;89.37;42.33;;;3.50;99.90;;;;;;4111172;28;20331;-59
2022/12/24 07:59:50;;;;;;;86.67;43.87;;;3.50;99.90;;;;;;4114498;28;20340;-54
2022/12/24 08:01:51;;;;;;;86.53;43.10;;;3.50;99.90;;;;;;4112040;28;20284;-62
2022/12/24 08:03:53;;;;;;;82.90;44.33;;;3.60;99.90;;;;;;4114184;28;20285;-63
2022/12/24 08:05:54;;;;;;;79.60;42.83;;;3.60;99.90;;;;;;4113049;28;20316;-59
2022/12/24 08:07:55;;;;;;;81.93;44.00;;;3.70;99.90;;;;;;4096357;29;20348;-60
2022/12/24 08:09:56;;;;;;;86.77;44.87;;;3.70;99.90;;;;;;4113433;28;20347;-59
2022/12/24 08:11:57;;;;;;;82.63;45.93;;;3.70;99.90;;;;;;4114285;28;20340;-61
2022/12/24 08:13:59;;;;;;;92.90;49.00;;;3.70;99.90;;;;;;4111781;28;20311;-60
2022/12/24 08:16:00;;;;;;;92.47;49.33;;;3.70;99.90;;;;;;4113159;28;20280;-59
2022/12/24 08:18:01;;;;;;;97.47;52.23;;;3.80;99.90;;;;;;4112976;28;20285;-58
2022/12/24 08:20:04;;;;;;;98.87;51.87;;;3.80;99.90;;;;;;4112022;28;20277;-62
2022/12/24 08:22:05;;;;;;;113.43;60.63;;;3.80;99.90;;;;;;4114276;28;20302;-60
2022/12/24 08:24:06;;;;;;;81.33;43.77;;;3.90;99.90;;;;;;4112270;28;20280;-63
2022/12/24 08:26:09;;;;;;;83.53;46.23;;;3.80;99.90;;;;;;4114040;28;20288;-62
2022/12/24 08:28:11;;;;;;;80.13;45.27;;;3.90;99.90;;;;;;4112295;28;20272;-60
2022/12/24 08:30:12;;;;;;;85.50;47.13;;;3.90;99.90;;;;;;4111668;28;20332;-60
2022/12/24 08:32:13;;;;;;;84.53;45.30;;;3.90;99.90;;;;;;4114185;28;20323;-56
2022/12/24 08:34:15;;;;;;;92.47;51.73;;;4.00;99.90;;;;;;4114055;28;20343;-59
2022/12/24 08:36:16;;;;;;;81.70;43.47;;;4.00;99.90;;;;;;4111766;28;20273;-61
2022/12/24 08:38:17;;;;;;;72.47;42.30;;;4.00;99.90;;;;;;4113121;28;20308;-60
2022/12/24 08:40:18;;;;;;;73.73;41.23;;;4.10;99.90;;;;;;4112367;28;20346;-60
2022/12/24 08:42:20;;;;;;;74.07;40.30;;;4.20;99.90;;;;;;4112712;28;20800;-60
2022/12/24 08:44:21;;;;;;;62.13;33.63;;;4.20;99.90;;;;;;4111381;28;20268;-59
2022/12/24 08:46:22;;;;;;;60.47;33.00;;;4.20;99.90;;;;;;4112771;28;20324;-63
2022/12/24 08:48:23;;;;;;;61.30;33.87;;;4.20;99.90;;;;;;4095711;29;20269;-58
2022/12/24 08:50:24;;;;;;;63.70;33.80;;;4.20;99.90;;;;;;4112135;28;20026;-66
2022/12/24 08:52:26;;;;;;;64.40;36.77;;;4.20;99.90;;;;;;4113342;28;20339;-63
2022/12/24 08:54:27;;;;;;;64.53;35.87;;;4.30;99.90;;;;;;4112261;28;20269;-64
2022/12/24 08:56:28;;;;;;;65.57;37.50;;;4.30;99.90;;;;;;4113566;28;20291;-62
2022/12/24 08:58:30;;;;;;;62.63;35.27;;;4.30;99.90;;;;;;4112259;28;20304;-61
2022/12/24 09:00:31;;;;;;;58.27;32.93;;;4.30;99.90;;;;;;4113335;28;20668;-63
2022/12/24 09:02:32;;;;;;;59.47;35.47;;;4.30;99.90;;;;;;4111251;28;20276;-62
2022/12/24 09:04:38;;;;;;;66.23;35.60;;;4.30;99.90;;;;;;4112722;28;20297;-62
2022/12/24 09:06:39;;;;;;;61.10;34.13;;;4.30;99.90;;;;;;4112563;28;20272;-65
2022/12/24 09:08:41;;;;;;;61.37;35.63;;;4.30;99.90;;;;;;4095652;29;20277;-63
2022/12/24 09:10:42;;;;;;;72.93;39.33;;;4.30;99.90;;;;;;4111936;28;20344;-64
2022/12/24 09:12:43;;;;;;;69.10;37.43;;;4.30;99.90;;;;;;4113158;28;20782;-56
2022/12/24 09:14:44;;;;;;;60.73;33.70;;;4.40;99.90;;;;;;4107645;28;20265;-59
2022/12/24 09:16:45;;;;;;;57.10;32.23;;;4.40;99.90;;;;;;4111865;28;20327;-66
2022/12/24 09:18:46;;;;;;;62.50;32.53;;;4.40;99.90;;;;;;4109628;28;20383;-61
2022/12/24 09:20:47;;;;;;;62.53;34.33;;;4.40;99.90;;;;;;4111595;28;20765;-56
2022/12/24 09:22:48;;;;;;;59.17;32.23;;;4.40;99.90;;;;;;4112157;28;20265;-60
2022/12/24 09:24:52;;;;;;;65.47;36.13;;;4.40;99.90;;;;;;4110679;28;20090;-62
2022/12/24 09:26:53;;;;;;;62.13;35.67;;;4.50;99.90;;;;;;4108760;28;20666;-61
2022/12/24 09:28:55;;;;;;;58.00;32.73;;;4.50;99.90;;;;;;4110990;28;20307;-62
2022/12/24 09:30:59;;;;;;;60.03;32.40;;;4.60;99.90;;;;;;4112158;28;20257;-60
2022/12/24 09:33:00;;;;;;;56.97;32.47;;;4.60;99.90;;;;;;4110877;28;20264;-61
2022/12/24 09:35:01;;;;;;;59.57;32.83;;;4.60;99.90;;;;;;4112878;28;20331;-60
2022/12/24 09:37:02;;;;;;;62.40;33.90;;;4.70;99.90;;;;;;4111394;28;20741;-60
2022/12/24 09:39:04;;;;;;;60.67;34.60;;;4.70;99.90;;;;;;4113381;28;20288;-61
2022/12/24 09:41:23;;;;;;;61.60;34.90;;;4.70;99.90;;;;;;4110908;28;20737;-60
2022/12/24 09:43:29;;;;;;;64.10;36.40;;;4.70;99.90;;;;;;4112543;28;20281;-62
2022/12/24 09:45:36;;;;;;;67.90;38.03;;;4.80;99.90;;;;;;4111749;28;20548;-62
2022/12/24 09:47:42;;;;;;;76.63;39.17;;;4.80;99.90;;;;;;4111987;28;20331;-61
2022/12/24 09:49:49;;;;;;;78.30;40.67;;;4.80;99.90;;;;;;4111820;28;20043;-60
2022/12/24 09:52:03;;;;;;;80.83;42.63;;;4.80;99.90;;;;;;4108811;28;20292;-62
2022/12/24 09:54:24;;;;;;;75.07;40.93;;;4.80;99.90;;;;;;4100646;28;20697;-61
2022/12/24 09:56:32;;;;;;;72.27;38.97;;;4.80;99.90;;;;;;4112072;28;20026;-60
2022/12/24 09:58:37;;;;;;;77.70;41.93;;;4.80;99.90;;;;;;4110804;28;20378;-62
2022/12/24 10:00:39;;;;;;;77.50;40.73;;;4.80;99.90;;;;;;4112154;28;20090;-64
2022/12/24 10:02:40;;;;;;;73.67;39.23;;;4.80;99.90;;;;;;4111083;28;20280;-61
2022/12/24 10:04:44;;;;;;;69.50;39.77;;;4.80;99.90;;;;;;4112613;28;20047;-60
2022/12/24 10:07:09;;;;;;;78.00;40.70;;;4.80;99.90;;;;;;4111577;28;20761;-60
2022/12/24 10:09:22;;;;;;;77.27;41.60;;;4.80;99.90;;;;;;4113222;28;20327;-64
2022/12/24 10:11:51;;;;;;;83.10;46.30;;;4.90;99.90;;;;;;4111483;28;20042;-63
2022/12/24 10:14:01;;;;;;;81.27;42.67;;;4.90;99.90;;;;;;4074289;28;20325;-61
2022/12/24 10:16:22;;;;;;;83.80;42.77;;;5.00;99.90;;;;;;4107128;28;20320;-56
2022/12/24 10:18:44;;;;;;;67.07;38.37;;;5.00;99.90;;;;;;4096807;29;20337;-56
2022/12/24 10:20:48;;;;;;;75.73;40.83;;;5.10;99.90;;;;;;4104308;28;20051;-57
2022/12/24 10:23:09;;;;;;;75.53;41.83;;;5.10;99.90;;;;;;4111735;28;20051;-62
2022/12/24 10:25:22;;;;;;;84.73;42.77;;;5.10;99.90;;;;;;4109803;28;20027;-55
2022/12/24 10:27:35;;;;;;;76.07;42.10;;;5.10;99.90;;;;;;4107511;28;20285;-60
2022/12/24 10:29:41;;;;;;;75.07;41.73;;;5.10;99.90;;;;;;4113238;28;20034;-58
2022/12/24 10:32:15;;;;;;;82.00;43.00;;;5.20;99.90;;;;;;4115336;28;20343;-60
2022/12/24 10:34:23;;;;;;;83.17;43.00;;;5.10;99.90;;;;;;4114331;28;20055;-58
2022/12/24 10:36:27;;;;;;;79.90;43.00;;;5.00;99.90;;;;;;4114746;28;20276;-55
2022/12/24 10:38:30;;;;;;;87.63;45.17;;;5.00;99.90;;;;;;4114658;28;20316;-58